createdAt,value
2019-05-23T00:00:57.943Z,8.70
2019-05-23T00:03:30.429Z,8.70
2019-05-23T00:06:00.469Z,8.70
2019-05-23T00:08:32.144Z,8.70
2019-05-23T00:11:04.037Z,8.70
2019-05-23T00:13:35.413Z,8.70
2019-05-23T00:16:04.616Z,8.80
2019-05-23T00:18:34.540Z,8.80
2019-05-23T00:21:03.395Z,8.80
2019-05-23T00:23:32.622Z,8.90
2019-05-23T00:26:01.292Z,8.90
2019-05-23T00:28:29.778Z,8.90
2019-05-23T00:31:02.638Z,8.90
2019-05-23T00:33:32.877Z,9.00
2019-05-23T00:36:02.057Z,9.00
2019-05-23T00:38:32.980Z,9.00
2019-05-23T00:41:02.674Z,8.90
2019-05-23T00:43:31.140Z,8.80
2019-05-23T00:45:59.918Z,8.80
2019-05-23T00:48:28.530Z,8.80
2019-05-23T00:50:58.913Z,8.80
2019-05-23T00:53:28.048Z,8.80
2019-05-23T00:55:57.700Z,8.80
2019-05-23T00:58:26.557Z,8.80
2019-05-23T01:00:56.554Z,8.80
2019-05-23T01:03:28.330Z,8.70
2019-05-23T01:05:57.205Z,8.70
2019-05-23T01:08:26.965Z,8.70
2019-05-23T01:10:56.122Z,8.70
2019-05-23T01:13:25.029Z,8.70
2019-05-23T01:15:54.908Z,8.80
2019-05-23T01:18:25.039Z,8.70
2019-05-23T01:21:01.615Z,8.60
2019-05-23T01:23:40.645Z,8.60
2019-05-23T01:26:11.827Z,8.60
2019-05-23T01:28:40.769Z,8.60
2019-05-23T01:31:16.838Z,8.60
2019-05-23T01:33:45.309Z,8.50
2019-05-23T01:36:15.119Z,8.50
2019-05-23T01:38:43.877Z,8.50
2019-05-23T01:41:12.647Z,8.50
2019-05-23T01:43:41.739Z,8.40
2019-05-23T01:46:11.698Z,8.40
2019-05-23T01:48:40.169Z,8.40
2019-05-23T01:51:09.726Z,8.40
2019-05-23T01:53:38.152Z,8.40
2019-05-23T01:56:06.947Z,8.40
2019-05-23T01:58:35.353Z,8.40
2019-05-23T02:01:04.880Z,8.40
2019-05-23T02:03:33.907Z,8.40
2019-05-23T02:06:02.383Z,8.40
2019-05-23T02:08:30.808Z,8.40
2019-05-23T02:10:59.209Z,8.30
2019-05-23T02:13:27.691Z,8.40
2019-05-23T02:15:56.105Z,8.30
2019-05-23T02:18:25.365Z,8.30
2019-05-23T02:20:53.927Z,8.30
2019-05-23T02:23:22.514Z,8.20
2019-05-23T02:25:51.565Z,8.20
2019-05-23T02:28:20.422Z,8.30
2019-05-23T02:30:50.578Z,8.20
2019-05-23T02:33:18.997Z,8.20
2019-05-23T02:35:48.671Z,8.20
2019-05-23T02:38:18.821Z,8.20
2019-05-23T02:40:49.040Z,8.20
2019-05-23T02:43:28.513Z,8.20
2019-05-23T02:45:59.019Z,8.10
2019-05-23T02:48:31.102Z,8.10
2019-05-23T02:51:03.302Z,8.10
2019-05-23T02:53:35.368Z,8.10
2019-05-23T02:56:07.923Z,8.10
2019-05-23T02:59:07.884Z,8.00
2019-05-23T03:01:43.985Z,8.00
2019-05-23T03:04:17.010Z,7.90
2019-05-23T03:06:46.040Z,7.90
2019-05-23T03:09:16.479Z,8.10
2019-05-23T03:11:49.730Z,8.00
2019-05-23T03:14:19.034Z,8.00
2019-05-23T03:16:51.624Z,8.10
2019-05-23T03:19:32.309Z,8.30
2019-05-23T03:22:21.315Z,8.50
2019-05-23T03:24:51.576Z,8.30
2019-05-23T03:27:21.208Z,8.40
2019-05-23T03:29:51.577Z,8.40
2019-05-23T03:32:36.295Z,8.30
2019-05-23T03:35:03.813Z,8.10
2019-05-23T03:37:32.296Z,8.10
2019-05-23T03:40:02.312Z,8.20
2019-05-23T03:42:30.724Z,8.20
2019-05-23T03:44:59.618Z,8.10
2019-05-23T03:47:30.121Z,8.00
2019-05-23T03:49:58.532Z,8.00
2019-05-23T03:52:27.781Z,7.90
2019-05-23T03:54:57.349Z,8.00
2019-05-23T03:57:26.312Z,7.90
2019-05-23T03:59:56.382Z,8.00
2019-05-23T04:02:26.678Z,8.00
2019-05-23T04:04:55.911Z,8.00
2019-05-23T04:07:24.633Z,8.00
2019-05-23T04:09:53.350Z,8.00
2019-05-23T04:12:22.365Z,8.10
2019-05-23T04:14:50.914Z,7.90
2019-05-23T04:17:19.390Z,8.00
2019-05-23T04:19:47.989Z,8.00
2019-05-23T04:22:17.228Z,7.90
2019-05-23T04:24:46.108Z,7.80
2019-05-23T04:27:14.603Z,7.90
2019-05-23T04:29:43.096Z,8.10
2019-05-23T04:32:11.508Z,8.20
2019-05-23T04:34:40.045Z,8.20
2019-05-23T04:37:08.526Z,8.20
2019-05-23T04:39:37.303Z,8.20
2019-05-23T04:42:06.873Z,8.30
2019-05-23T04:44:35.403Z,8.30
2019-05-23T04:47:05.283Z,8.40
2019-05-23T04:49:33.751Z,8.20
2019-05-23T04:52:03.227Z,8.10
2019-05-23T04:54:31.685Z,8.10
2019-05-23T04:57:00.646Z,8.10
2019-05-23T04:59:29.497Z,8.10
2019-05-23T05:01:58.096Z,8.20
2019-05-23T05:04:26.642Z,8.20
2019-05-23T05:06:55.675Z,8.30
2019-05-23T05:09:28.885Z,8.40
2019-05-23T05:11:58.318Z,8.50
2019-05-23T05:14:27.573Z,8.50
2019-05-23T05:16:56.898Z,8.60
2019-05-23T05:19:25.816Z,8.70
2019-05-23T05:21:54.232Z,8.80
2019-05-23T05:24:22.841Z,8.90
2019-05-23T05:26:51.250Z,9.10
2019-05-23T05:29:19.683Z,9.20
2019-05-23T05:31:48.182Z,9.30
2019-05-23T05:34:16.663Z,9.50
2019-05-23T05:36:45.086Z,9.60
2019-05-23T05:39:13.797Z,9.80
2019-05-23T05:41:42.235Z,9.90
2019-05-23T05:44:11.720Z,10.00
2019-05-23T05:46:41.112Z,10.20
2019-05-23T05:49:10.172Z,10.40
2019-05-23T05:51:38.592Z,10.50
2019-05-23T05:54:08.062Z,10.60
2019-05-23T05:56:36.694Z,10.80
2019-05-23T05:59:06.341Z,10.90
2019-05-23T06:01:35.195Z,11.10
2019-05-23T06:04:04.611Z,11.30
2019-05-23T06:06:34.657Z,11.40
2019-05-23T06:09:16.788Z,11.40
2019-05-23T06:11:45.201Z,11.40
2019-05-23T06:14:13.690Z,11.70
2019-05-23T06:16:42.804Z,11.70
2019-05-23T06:19:11.926Z,11.60
2019-05-23T06:21:41.492Z,11.70
2019-05-23T06:24:10.412Z,11.70
2019-05-23T06:26:42.020Z,11.60
2019-05-23T06:29:10.734Z,11.70
2019-05-23T06:31:40.330Z,11.70
2019-05-23T06:34:09.425Z,11.80
2019-05-23T06:36:38.198Z,11.90
2019-05-23T06:39:10.720Z,12.20
2019-05-23T06:41:39.138Z,12.40
2019-05-23T06:44:09.098Z,12.70
2019-05-23T06:46:37.773Z,12.90
2019-05-23T06:49:06.202Z,12.90
2019-05-23T06:51:34.947Z,13.00
2019-05-23T06:54:03.497Z,12.90
2019-05-23T06:56:31.898Z,13.00
2019-05-23T06:59:00.300Z,13.00
2019-05-23T07:01:28.810Z,13.20
2019-05-23T07:03:57.357Z,13.40
2019-05-23T07:06:26.514Z,13.50
2019-05-23T07:08:55.023Z,13.60
2019-05-23T07:11:23.779Z,13.70
2019-05-23T07:13:52.667Z,13.80
2019-05-23T07:16:21.090Z,14.00
2019-05-23T07:18:49.506Z,14.20
2019-05-23T07:21:18.589Z,14.40
2019-05-23T07:23:47.075Z,14.40
2019-05-23T07:26:15.864Z,14.50
2019-05-23T07:28:44.846Z,14.50
2019-05-23T07:31:13.325Z,14.70
2019-05-23T07:33:59.899Z,14.90
2019-05-23T07:36:13.169Z,15.00
2019-05-23T07:38:41.580Z,15.10
2019-05-23T07:41:10.114Z,15.10
2019-05-23T07:43:38.887Z,15.20
2019-05-23T07:46:07.308Z,15.20
2019-05-23T07:48:35.886Z,15.30
2019-05-23T07:51:04.445Z,15.30
2019-05-23T07:53:34.598Z,15.50
2019-05-23T07:56:04.107Z,15.60
2019-05-23T07:58:32.895Z,15.80
2019-05-23T08:01:05.930Z,16.00
2019-05-23T08:03:36.536Z,16.10
2019-05-23T08:06:05.550Z,16.10
2019-05-23T08:08:34.921Z,16.10
2019-05-23T08:11:03.534Z,16.40
2019-05-23T08:13:32.125Z,16.20
2019-05-23T08:16:01.349Z,16.40
2019-05-23T08:18:30.501Z,16.50
2019-05-23T08:20:58.923Z,16.60
2019-05-23T08:23:27.907Z,16.60
2019-05-23T08:25:56.487Z,16.60
2019-05-23T08:28:25.195Z,16.70
2019-05-23T08:30:53.828Z,16.70
2019-05-23T08:33:22.884Z,16.90
2019-05-23T08:35:51.973Z,16.80
2019-05-23T08:38:21.469Z,17.00
2019-05-23T08:40:51.221Z,16.90
2019-05-23T08:43:19.794Z,17.00
2019-05-23T08:45:48.381Z,17.20
2019-05-23T08:48:16.977Z,17.10
2019-05-23T08:50:45.451Z,17.10
2019-05-23T08:53:13.878Z,17.20
2019-05-23T08:55:42.467Z,17.20
2019-05-23T08:58:12.006Z,17.30
2019-05-23T09:00:41.427Z,17.30
2019-05-23T09:03:10.799Z,17.40
2019-05-23T09:05:40.910Z,17.40
2019-05-23T09:08:11.357Z,17.70
2019-05-23T09:10:40.833Z,17.70
2019-05-23T09:13:09.411Z,17.80
2019-05-23T09:15:37.950Z,17.90
2019-05-23T09:18:06.989Z,18.00
2019-05-23T09:20:36.160Z,17.90
2019-05-23T09:23:04.649Z,17.90
2019-05-23T09:25:33.572Z,17.90
2019-05-23T09:28:02.761Z,18.00
2019-05-23T09:30:32.466Z,18.10
2019-05-23T09:33:01.201Z,18.20
2019-05-23T09:35:29.779Z,18.20
2019-05-23T09:37:58.442Z,18.30
2019-05-23T09:40:27.138Z,18.30
2019-05-23T09:42:55.693Z,18.50
2019-05-23T09:45:24.174Z,18.50
2019-05-23T09:47:52.671Z,18.50
2019-05-23T09:50:22.781Z,18.40
2019-05-23T09:52:51.273Z,18.50
2019-05-23T09:55:19.842Z,18.30
2019-05-23T09:57:48.260Z,18.50
2019-05-23T10:00:20.015Z,18.70
2019-05-23T10:02:48.516Z,18.70
2019-05-23T10:05:17.385Z,18.60
2019-05-23T10:07:45.805Z,18.70
2019-05-23T10:10:15.627Z,18.80
2019-05-23T10:12:44.198Z,18.90
2019-05-23T10:15:32.936Z,18.90
2019-05-23T10:18:01.429Z,19.00
2019-05-23T10:20:32.152Z,19.10
2019-05-23T10:23:00.572Z,19.10
2019-05-23T10:25:29.137Z,19.00
2019-05-23T10:27:57.694Z,19.00
2019-05-23T10:30:26.324Z,19.10
2019-05-23T10:32:55.100Z,18.90
2019-05-23T10:35:24.559Z,18.90
2019-05-23T10:37:53.071Z,19.10
2019-05-23T10:40:22.157Z,19.10
2019-05-23T10:42:50.722Z,19.20
2019-05-23T10:45:19.392Z,19.30
2019-05-23T10:47:47.810Z,19.40
2019-05-23T10:50:16.672Z,19.50
2019-05-23T10:52:45.120Z,19.60
2019-05-23T10:55:14.404Z,19.60
2019-05-23T10:57:43.086Z,19.70
2019-05-23T11:00:13.597Z,19.70
2019-05-23T11:02:42.881Z,19.70
2019-05-23T11:05:13.801Z,19.70
2019-05-23T11:07:42.717Z,19.70
2019-05-23T11:10:11.780Z,19.90
2019-05-23T11:12:41.707Z,20.00
2019-05-23T11:15:10.491Z,19.90
2019-05-23T11:17:39.181Z,20.10
2019-05-23T11:20:10.535Z,20.10
2019-05-23T11:22:39.432Z,20.00
2019-05-23T11:25:10.320Z,20.10
2019-05-23T11:27:38.816Z,20.10
2019-05-23T11:30:11.031Z,20.20
2019-05-23T11:32:39.519Z,20.40
2019-05-23T11:35:08.230Z,20.10
2019-05-23T11:37:36.843Z,20.20
2019-05-23T11:40:08.392Z,20.30
2019-05-23T11:42:36.897Z,20.40
2019-05-23T11:45:08.347Z,20.20
2019-05-23T11:47:37.366Z,20.20
2019-05-23T11:50:07.173Z,20.30
2019-05-23T11:52:35.708Z,20.30
2019-05-23T11:55:06.312Z,20.30
2019-05-23T11:57:37.887Z,20.50
2019-05-23T12:00:08.877Z,20.60
2019-05-23T12:02:39.114Z,20.60
2019-05-23T12:05:09.509Z,20.70
2019-05-23T12:07:38.125Z,20.70
2019-05-23T12:10:07.368Z,20.80
2019-05-23T12:12:35.784Z,20.70
2019-05-23T12:15:08.901Z,20.80
2019-05-23T12:17:37.392Z,20.80
2019-05-23T12:20:07.596Z,20.90
2019-05-23T12:22:36.386Z,21.10
2019-05-23T12:25:20.861Z,21.10
2019-05-23T12:27:38.957Z,21.10
2019-05-23T12:30:10.958Z,21.30
2019-05-23T12:32:39.402Z,21.40
2019-05-23T12:35:10.889Z,21.30
2019-05-23T12:38:02.914Z,21.20
2019-05-23T12:40:31.473Z,21.30
2019-05-23T12:42:59.911Z,21.20
2019-05-23T12:45:28.381Z,21.00
2019-05-23T12:48:04.433Z,21.10
2019-05-23T12:50:46.675Z,21.00
2019-05-23T12:53:15.981Z,21.30
2019-05-23T12:55:44.456Z,21.30
2019-05-23T12:58:12.877Z,21.40
2019-05-23T13:00:43.095Z,21.40
2019-05-23T13:03:13.329Z,21.60
2019-05-23T13:05:42.067Z,21.80
2019-05-23T13:08:10.652Z,21.90
2019-05-23T13:10:39.308Z,21.70
2019-05-23T13:13:07.982Z,21.70
2019-05-23T13:15:37.548Z,21.60
2019-05-23T13:18:05.969Z,21.60
2019-05-23T13:20:34.672Z,21.50
2019-05-23T13:23:03.225Z,21.80
2019-05-23T13:25:32.423Z,21.70
2019-05-23T13:28:00.864Z,21.80
2019-05-23T13:30:29.367Z,22.10
2019-05-23T13:32:58.026Z,22.20
2019-05-23T13:35:26.943Z,22.00
2019-05-23T13:37:55.526Z,22.10
2019-05-23T13:40:25.117Z,22.10
2019-05-23T13:42:54.591Z,22.00
2019-05-23T13:45:23.180Z,22.10
2019-05-23T13:47:51.928Z,22.10
2019-05-23T13:50:20.764Z,22.10
2019-05-23T13:52:49.758Z,22.10
2019-05-23T13:55:18.622Z,22.30
2019-05-23T13:57:47.282Z,22.20
2019-05-23T14:00:16.313Z,22.40
2019-05-23T14:02:44.723Z,22.60
2019-05-23T14:05:13.472Z,22.60
2019-05-23T14:07:41.976Z,22.60
2019-05-23T14:10:11.798Z,22.40
2019-05-23T14:12:40.493Z,22.40
2019-05-23T14:15:11.187Z,22.20
2019-05-23T14:17:43.866Z,22.30
2019-05-23T14:20:14.827Z,22.20
2019-05-23T14:22:46.921Z,22.20
2019-05-23T14:25:15.533Z,22.10
2019-05-23T14:27:51.655Z,22.30
2019-05-23T14:30:37.340Z,22.50
2019-05-23T14:33:11.508Z,22.50
2019-05-23T14:35:41.636Z,22.40
2019-05-23T14:38:29.274Z,22.50
2019-05-23T14:40:43.662Z,22.80
2019-05-23T14:43:13.715Z,22.80
2019-05-23T14:45:46.597Z,23.10
2019-05-23T14:48:19.491Z,22.80
2019-05-23T14:50:52.792Z,22.90
2019-05-23T14:53:25.481Z,23.00
2019-05-23T14:55:53.898Z,23.20
2019-05-23T14:58:22.467Z,23.30
2019-05-23T15:00:50.987Z,23.10
2019-05-23T15:03:19.618Z,23.00
2019-05-23T15:05:48.275Z,23.10
2019-05-23T15:08:16.762Z,23.00
2019-05-23T15:10:45.187Z,23.20
2019-05-23T15:13:13.768Z,23.00
2019-05-23T15:15:42.289Z,22.80
2019-05-23T15:18:11.327Z,22.90
2019-05-23T15:20:39.738Z,22.90
2019-05-23T15:23:08.173Z,23.30
2019-05-23T15:25:36.575Z,23.50
2019-05-23T15:28:05.341Z,23.60
2019-05-23T15:30:33.756Z,23.80
2019-05-23T15:33:02.236Z,23.80
2019-05-23T15:35:31.165Z,23.80
2019-05-23T15:37:59.727Z,23.80
2019-05-23T15:40:29.019Z,23.70
2019-05-23T15:42:57.438Z,23.50
2019-05-23T15:45:26.134Z,23.40
2019-05-23T15:47:55.073Z,23.40
2019-05-23T15:50:34.157Z,23.00
2019-05-23T15:53:04.240Z,22.80
2019-05-23T15:55:50.925Z,22.60
2019-05-23T15:58:30.206Z,22.30
2019-05-23T16:01:16.728Z,22.00
2019-05-23T16:03:46.903Z,21.80
2019-05-23T16:06:17.147Z,21.60
2019-05-23T16:08:45.581Z,21.40
2019-05-23T16:11:17.278Z,21.20
2019-05-23T16:13:44.367Z,21.00
2019-05-23T16:16:12.951Z,21.10
2019-05-23T16:18:41.388Z,20.90
2019-05-23T16:21:10.122Z,20.70
2019-05-23T16:23:38.594Z,20.50
2019-05-23T16:26:09.384Z,20.40
2019-05-23T16:28:37.440Z,20.30
2019-05-23T16:31:05.891Z,20.20
2019-05-23T16:33:34.389Z,20.10
